createdAt,value
2023-04-02T00:01:00.859Z,101359.53
2023-04-02T00:03:42.539Z,101370.78
2023-04-02T00:06:40.536Z,101366.94
2023-04-02T00:09:13.739Z,101371.59
2023-04-02T00:11:46.700Z,101380.63
2023-04-02T00:14:18.594Z,101380.25
2023-04-02T00:16:46.032Z,101386.53
2023-04-02T00:19:18.537Z,101393.34
2023-04-02T00:21:46.684Z,101391.25
2023-04-02T00:24:20.786Z,101394.97
2023-04-02T00:26:53.037Z,101400.38
2023-04-02T00:29:20.786Z,101392.38
2023-04-02T00:31:51.101Z,101404.78
2023-04-02T00:34:33.854Z,101401.97
2023-04-02T00:37:01.948Z,101403.81
2023-04-02T00:39:34.341Z,101409.16
2023-04-02T00:42:06.506Z,101408.34
2023-04-02T00:44:43.270Z,101416.97
2023-04-02T00:47:19.252Z,101411.16
2023-04-02T00:49:47.094Z,101412.41
2023-04-02T00:52:21.494Z,101418.31
2023-04-02T00:54:52.450Z,101415.88
2023-04-02T00:57:26.118Z,101424.28
2023-04-02T01:00:12.620Z,101422.22
2023-04-02T01:02:41.018Z,101417.22
2023-04-02T01:05:17.794Z,101432.72
2023-04-02T01:08:07.167Z,101431.97
2023-04-02T01:11:02.423Z,101437.31
2023-04-02T01:13:39.563Z,101436.09
2023-04-02T01:16:19.553Z,101440.66
2023-04-02T01:19:02.171Z,101448.38
2023-04-02T01:21:43.205Z,101445.16
2023-04-02T01:24:14.630Z,101452.88
2023-04-02T01:27:04.227Z,101461.53
2023-04-02T01:29:48.957Z,101455.06
2023-04-02T01:32:19.830Z,101474.16
2023-04-02T01:34:48.746Z,101471.34
2023-04-02T01:37:50.026Z,101476.59
2023-04-02T01:40:36.271Z,101474.41
2023-04-02T01:43:12.937Z,101482.94
2023-04-02T01:45:40.708Z,101484.09
2023-04-02T01:48:20.282Z,101484.13
2023-04-02T01:50:49.979Z,101492.28
2023-04-02T01:53:19.224Z,101490.69
2023-04-02T01:55:51.023Z,101506.72
2023-04-02T01:58:25.848Z,101502.44
2023-04-02T02:01:04.033Z,101510.19
2023-04-02T02:03:31.908Z,101512.84
2023-04-02T02:05:59.904Z,101508.69
2023-04-02T02:08:50.828Z,101507.09
2023-04-02T02:11:23.666Z,101520.94
2023-04-02T02:13:57.580Z,101523.00
2023-04-02T02:16:29.540Z,101527.50
2023-04-02T02:19:04.224Z,101533.03
2023-04-02T02:21:40.139Z,101536.88
2023-04-02T02:24:37.264Z,101547.09
2023-04-02T02:27:04.346Z,101543.22
2023-04-02T02:29:37.153Z,101549.53
2023-04-02T02:32:07.429Z,101549.97
2023-04-02T02:34:43.468Z,101548.47
2023-04-02T02:37:19.222Z,101553.59
2023-04-02T02:39:53.834Z,101561.09
2023-04-02T02:42:29.349Z,101574.41
2023-04-02T02:44:58.553Z,101576.03
2023-04-02T02:47:35.005Z,101573.84
2023-04-02T02:50:07.226Z,101570.72
2023-04-02T02:52:38.847Z,101574.66
2023-04-02T02:55:14.417Z,101582.69
2023-04-02T02:57:51.415Z,101586.31
2023-04-02T03:00:21.305Z,101586.31
2023-04-02T03:02:52.543Z,101594.66
2023-04-02T03:05:24.455Z,101592.09
2023-04-02T03:07:52.395Z,101603.66
2023-04-02T03:10:24.954Z,89096.44
2023-04-02T03:13:02.615Z,80745.91
2023-04-02T03:15:41.344Z,101613.72
2023-04-02T03:18:20.916Z,101623.88
2023-04-02T03:21:00.846Z,101628.81
2023-04-02T03:23:33.239Z,101634.72
2023-04-02T03:26:12.511Z,101631.63
2023-04-02T03:28:45.346Z,101635.34
2023-04-02T03:31:38.096Z,101642.66
2023-04-02T03:34:26.697Z,101650.59
2023-04-02T03:37:08.047Z,101653.91
2023-04-02T03:39:46.568Z,101668.34
2023-04-02T03:42:25.151Z,101674.88
2023-04-02T03:45:19.307Z,101673.66
2023-04-02T03:47:56.211Z,101681.22
2023-04-02T03:50:53.965Z,101677.31
2023-04-02T03:53:24.312Z,101681.75
2023-04-02T03:55:54.085Z,101698.13
2023-04-02T03:58:43.473Z,101691.53
2023-04-02T04:01:31.976Z,101697.66
2023-04-02T04:04:07.913Z,101709.38
2023-04-02T04:06:37.582Z,101712.75
2023-04-02T04:09:11.513Z,101714.38
2023-04-02T04:11:45.732Z,101730.91
2023-04-02T04:14:27.725Z,101729.09
2023-04-02T04:17:15.845Z,101729.06
2023-04-02T04:20:00.936Z,101742.53
2023-04-02T04:22:33.018Z,101748.63
2023-04-02T04:25:06.020Z,101756.63
2023-04-02T04:27:58.266Z,101768.22
2023-04-02T04:30:51.302Z,101766.81
2023-04-02T04:33:23.062Z,101778.84
2023-04-02T04:35:55.876Z,101778.66
2023-04-02T04:38:39.277Z,101786.22
2023-04-02T04:41:35.637Z,101782.50
2023-04-02T04:44:34.321Z,101798.44
2023-04-02T04:47:20.560Z,101799.47
2023-04-02T04:49:53.623Z,101805.38
2023-04-02T04:52:25.841Z,101817.03
2023-04-02T04:54:53.079Z,101814.38
2023-04-02T04:57:37.144Z,101826.44
2023-04-02T05:00:14.369Z,101831.94
2023-04-02T05:03:26.555Z,101830.81
2023-04-02T05:05:54.176Z,101837.75
2023-04-02T05:08:27.365Z,101841.63
2023-04-02T05:11:03.498Z,73387.22
2023-04-02T05:13:38.948Z,73387.22
2023-04-02T05:16:24.482Z,73387.22
2023-04-02T05:19:06.825Z,73387.22
2023-04-02T05:21:51.993Z,73387.22
2023-04-02T05:24:51.395Z,73387.22
2023-04-02T05:27:42.414Z,73387.22
2023-04-02T05:30:52.987Z,73387.22
2023-04-02T05:33:29.453Z,73387.22
2023-04-02T05:36:07.805Z,101843.03
2023-04-02T05:38:38.745Z,101880.56
2023-04-02T05:41:27.159Z,92448.59
2023-04-02T05:44:06.749Z,73387.22
2023-04-02T05:46:42.796Z,73387.22
2023-04-02T05:49:37.379Z,73387.22
2023-04-02T05:52:08.111Z,73387.22
2023-04-02T05:54:40.089Z,73387.22
2023-04-02T05:57:44.600Z,73387.22
2023-04-02T06:00:47.693Z,73387.22
2023-04-02T06:03:46.070Z,73387.22
2023-04-02T06:06:24.448Z,73387.22
2023-04-02T06:09:01.416Z,73387.22
2023-04-02T06:11:34.826Z,73387.22
2023-04-02T06:14:04.930Z,73387.22
2023-04-02T06:16:34.380Z,73387.22
2023-04-02T06:19:05.614Z,101877.91
2023-04-02T06:21:33.074Z,101948.66
2023-04-02T06:24:03.520Z,101951.56
2023-04-02T06:26:35.462Z,101956.50
2023-04-02T06:29:13.954Z,101950.94
2023-04-02T06:31:49.288Z,101957.22
2023-04-02T06:34:22.510Z,101955.81
2023-04-02T06:36:51.653Z,101948.69
2023-04-02T06:39:22.865Z,101958.72
2023-04-02T06:42:02.103Z,101963.72
2023-04-02T06:44:36.977Z,101946.75
2023-04-02T06:47:24.188Z,101957.66
2023-04-02T06:50:01.918Z,101960.94
2023-04-02T06:52:35.109Z,101972.78
2023-04-02T06:55:20.596Z,101962.56
2023-04-02T06:57:48.428Z,101966.28
2023-04-02T07:00:34.383Z,101970.34
2023-04-02T07:03:25.212Z,101987.34
2023-04-02T07:05:52.451Z,101993.41
2023-04-02T07:08:20.016Z,101996.50
2023-04-02T07:10:47.341Z,102001.28
2023-04-02T07:13:17.001Z,102004.41
2023-04-02T07:15:49.470Z,101995.50
2023-04-02T07:18:34.177Z,102001.66
2023-04-02T07:21:02.454Z,102000.59
2023-04-02T07:23:30.864Z,102005.59
2023-04-02T07:25:58.534Z,102013.47
2023-04-02T07:28:26.588Z,102011.50
2023-04-02T07:30:56.812Z,101994.41
2023-04-02T07:33:28.934Z,102007.91
2023-04-02T07:35:57.663Z,102005.69
2023-04-02T07:38:25.053Z,102010.88
2023-04-02T07:40:52.364Z,102012.63
2023-04-02T07:43:19.530Z,102026.56
2023-04-02T07:45:46.773Z,102026.06
2023-04-02T07:48:15.316Z,102030.84
2023-04-02T07:50:42.728Z,102026.88
2023-04-02T07:53:30.101Z,102039.34
2023-04-02T07:56:01.585Z,102031.31
2023-04-02T07:58:30.644Z,102054.88
2023-04-02T08:00:58.898Z,102035.94
2023-04-02T08:03:26.931Z,102039.28
2023-04-02T08:05:56.797Z,102059.19
2023-04-02T08:08:25.440Z,102069.44
2023-04-02T08:10:52.835Z,102063.00
2023-04-02T08:13:20.142Z,102073.66
2023-04-02T08:15:47.216Z,102082.97
2023-04-02T08:18:14.417Z,102082.94
2023-04-02T08:20:41.943Z,102091.81
2023-04-02T08:23:17.982Z,102076.94
2023-04-02T08:25:45.711Z,102070.75
2023-04-02T08:28:13.042Z,102068.84
2023-04-02T08:30:41.196Z,102065.00
2023-04-02T08:33:08.562Z,102069.56
2023-04-02T08:35:36.526Z,102069.34
2023-04-02T08:38:04.325Z,102078.44
2023-04-02T08:40:36.494Z,102099.97
2023-04-02T08:43:25.451Z,102109.44
2023-04-02T08:46:11.870Z,102116.91
2023-04-02T08:48:43.155Z,102126.69
2023-04-02T08:51:23.189Z,102134.22
2023-04-02T08:53:53.481Z,102132.88
2023-04-02T08:56:30.685Z,102112.44
2023-04-02T08:59:03.440Z,102077.66
2023-04-02T09:01:46.924Z,102067.13
2023-04-02T09:04:20.710Z,102080.28
2023-04-02T09:06:49.545Z,102072.81
2023-04-02T09:09:17.049Z,102083.47
2023-04-02T09:11:54.030Z,102106.34
2023-04-02T09:14:30.998Z,102104.72
2023-04-02T09:17:02.175Z,102123.34
2023-04-02T09:19:37.379Z,102135.75
2023-04-02T09:22:26.238Z,102143.59
2023-04-02T09:24:58.602Z,102142.72
2023-04-02T09:27:28.722Z,102133.91
2023-04-02T09:30:24.214Z,102111.78
2023-04-02T09:32:57.047Z,102100.69
2023-04-02T09:35:27.180Z,102103.31
2023-04-02T09:38:17.920Z,102108.63
2023-04-02T09:40:54.123Z,102108.19
2023-04-02T09:43:27.247Z,102108.25
2023-04-02T09:46:16.024Z,102139.72
2023-04-02T09:48:54.765Z,102133.47
2023-04-02T09:51:26.951Z,102143.38
2023-04-02T09:54:03.369Z,102167.50
2023-04-02T09:56:32.785Z,102169.34
2023-04-02T09:59:15.509Z,102165.97
2023-04-02T10:01:55.764Z,102174.97
2023-04-02T10:04:36.522Z,102162.66
2023-04-02T10:07:06.507Z,102155.09
2023-04-02T10:09:36.998Z,102126.88
2023-04-02T10:12:13.542Z,102115.47
2023-04-02T10:14:45.022Z,102108.13
2023-04-02T10:17:35.737Z,102128.34
2023-04-02T10:20:11.756Z,102163.91
2023-04-02T10:22:40.064Z,102180.22
2023-04-02T10:25:31.242Z,102161.41
2023-04-02T10:28:12.382Z,102103.53
2023-04-02T10:31:17.460Z,102114.22
2023-04-02T10:33:51.482Z,102133.91
2023-04-02T10:36:37.187Z,102119.53
2023-04-02T10:39:15.909Z,102135.63
2023-04-02T10:42:14.924Z,102112.16
2023-04-02T10:44:52.755Z,73387.22
2023-04-02T10:47:38.132Z,129110.94
2023-04-02T10:50:37.652Z,102119.53
2023-04-02T10:53:27.171Z,102128.16
2023-04-02T10:55:59.097Z,102142.09
2023-04-02T10:58:29.617Z,102139.91
2023-04-02T11:01:04.800Z,102129.84
2023-04-02T11:03:42.031Z,102132.63
2023-04-02T11:06:28.881Z,102140.47
2023-04-02T11:09:04.942Z,102137.09
2023-04-02T11:11:47.109Z,102143.38
2023-04-02T11:14:27.744Z,102133.50
2023-04-02T11:16:59.114Z,102145.41
2023-04-02T11:19:34.310Z,102152.00
2023-04-02T11:22:15.328Z,102175.81
2023-04-02T11:24:57.312Z,102143.56
2023-04-02T11:27:28.527Z,112753.63
2023-04-02T11:30:05.255Z,102154.78
2023-04-02T11:32:43.087Z,102163.31
2023-04-02T11:35:32.319Z,102129.63
2023-04-02T11:38:23.502Z,102189.06
2023-04-02T11:40:58.692Z,102176.25
2023-04-02T11:43:35.740Z,102222.56
2023-04-02T11:46:21.809Z,102205.88
2023-04-02T11:48:49.429Z,102217.81
2023-04-02T11:51:25.874Z,102245.88
2023-04-02T11:53:54.567Z,102254.31
2023-04-02T11:56:32.663Z,102248.00
2023-04-02T11:59:24.766Z,102225.88
2023-04-02T12:02:24.615Z,102382.38
2023-04-02T12:05:04.546Z,102376.94
2023-04-02T12:07:38.421Z,102374.81
2023-04-02T12:10:17.313Z,102378.72
2023-04-02T12:12:45.175Z,102384.28
2023-04-02T12:15:34.674Z,102408.56
2023-04-02T12:18:23.187Z,102404.53
2023-04-02T12:20:53.233Z,102389.03
2023-04-02T12:23:33.626Z,102406.44
2023-04-02T12:26:03.942Z,102398.75
2023-04-02T12:28:35.696Z,102394.94
2023-04-02T12:31:09.075Z,102388.50
2023-04-02T12:33:38.006Z,102386.38
2023-04-02T12:36:17.271Z,102392.91
2023-04-02T12:38:51.210Z,102397.94
2023-04-02T12:41:33.466Z,102425.00
2023-04-02T12:44:03.548Z,102423.34
2023-04-02T12:46:33.254Z,102425.34
2023-04-02T12:49:36.078Z,102427.50
2023-04-02T12:52:09.326Z,102429.69
2023-04-02T12:54:45.077Z,102428.72
2023-04-02T12:57:27.770Z,102440.00
2023-04-02T13:00:06.456Z,102444.81
2023-04-02T13:02:44.896Z,102449.19
2023-04-02T13:05:52.469Z,102452.06
2023-04-02T13:08:22.543Z,102441.66
2023-04-02T13:10:59.133Z,102456.50
2023-04-02T13:13:34.229Z,102470.72
2023-04-02T13:16:14.890Z,102453.91
2023-04-02T13:18:45.043Z,102453.19
2023-04-02T13:21:14.774Z,102450.78
2023-04-02T13:23:42.393Z,102454.59
2023-04-02T13:26:22.951Z,102463.75
2023-04-02T13:29:17.802Z,102471.31
2023-04-02T13:31:45.135Z,102477.56
2023-04-02T13:34:12.359Z,102464.31
2023-04-02T13:36:39.714Z,102463.22
2023-04-02T13:39:07.084Z,102459.69
2023-04-02T13:41:40.507Z,102488.53
2023-04-02T13:44:11.425Z,102498.97
2023-04-02T13:46:38.609Z,102449.81
2023-04-02T13:49:05.907Z,102446.38
2023-04-02T13:51:45.164Z,102460.22
2023-04-02T13:54:19.844Z,102446.56
2023-04-02T13:56:47.234Z,102457.19
2023-04-02T13:59:14.517Z,102467.84
2023-04-02T14:01:44.730Z,102468.06
2023-04-02T14:04:17.747Z,102478.91
2023-04-02T14:07:20.218Z,102489.19
2023-04-02T14:10:09.981Z,102501.03
2023-04-02T14:13:08.401Z,102490.00
2023-04-02T14:15:57.365Z,102500.41
2023-04-02T14:18:33.134Z,102492.25
2023-04-02T14:21:29.170Z,102510.59
2023-04-02T14:24:17.967Z,102507.59
2023-04-02T14:26:59.663Z,102516.13
2023-04-02T14:29:31.633Z,102523.75
2023-04-02T14:32:04.499Z,102540.34
2023-04-02T14:35:03.206Z,102529.94
2023-04-02T14:37:44.226Z,102513.81
2023-04-02T14:40:27.688Z,102502.38
2023-04-02T14:43:05.921Z,102514.59
2023-04-02T14:45:50.191Z,102517.81
2023-04-02T14:48:24.774Z,102532.66
2023-04-02T14:50:56.409Z,102525.09
2023-04-02T14:53:37.648Z,102505.00
2023-04-02T14:56:08.568Z,102519.22
2023-04-02T14:58:41.369Z,102531.69
2023-04-02T15:01:33.713Z,102532.94
2023-04-02T15:04:14.876Z,102537.41
2023-04-02T15:06:46.102Z,102537.41
2023-04-02T15:09:18.981Z,73387.22
2023-04-02T15:11:51.361Z,73387.22
2023-04-02T15:14:31.849Z,73387.22
2023-04-02T15:16:59.014Z,73387.22
2023-04-02T15:19:26.419Z,73387.22
2023-04-02T15:22:07.361Z,73387.22
2023-04-02T15:24:43.278Z,73387.22
2023-04-02T15:27:28.910Z,102573.28
2023-04-02T15:30:26.857Z,102587.97
2023-04-02T15:32:59.223Z,102565.00
2023-04-02T15:35:41.713Z,102564.94
2023-04-02T15:38:18.062Z,102566.06
2023-04-02T15:41:11.621Z,102566.47
2023-04-02T15:44:20.176Z,102576.38
2023-04-02T15:47:08.431Z,102588.00
2023-04-02T15:49:53.779Z,102581.78
2023-04-02T15:52:30.416Z,102577.63
2023-04-02T15:55:19.312Z,102585.38
2023-04-02T15:57:54.767Z,102603.53
2023-04-02T16:00:33.568Z,102606.44
2023-04-02T16:03:36.985Z,102608.53
2023-04-02T16:06:32.816Z,102628.94
2023-04-02T16:09:27.518Z,102627.91
2023-04-02T16:12:01.418Z,102617.47
2023-04-02T16:14:31.361Z,102615.38
2023-04-02T16:17:23.893Z,102615.50
2023-04-02T16:20:02.072Z,102616.72
2023-04-02T16:22:30.943Z,102633.09
2023-04-02T16:25:16.398Z,102647.88
2023-04-02T16:27:57.771Z,102647.03
2023-04-02T16:30:33.920Z,102647.03
2023-04-02T16:33:30.554Z,102638.13
2023-04-02T16:36:25.724Z,102635.66
2023-04-02T16:39:22.060Z,102624.44
2023-04-02T16:42:11.723Z,102646.44
2023-04-02T16:45:24.004Z,102657.16
2023-04-02T16:47:50.948Z,102675.88
2023-04-02T16:50:36.565Z,102677.84
2023-04-02T16:53:06.835Z,102689.88
2023-04-02T16:56:29.322Z,102685.75
2023-04-02T16:59:22.803Z,102687.81
2023-04-02T17:01:57.209Z,102685.13
2023-04-02T17:04:51.845Z,102689.28
2023-04-02T17:07:40.717Z,102702.25
2023-04-02T17:10:32.126Z,102702.81
2023-04-02T17:13:14.986Z,102705.72
2023-04-02T17:15:45.927Z,102707.38
2023-04-02T17:18:21.732Z,102707.16
2023-04-02T17:20:49.518Z,102698.66
2023-04-02T17:23:18.862Z,102703.59
2023-04-02T17:25:54.484Z,102703.59
2023-04-02T17:28:29.535Z,102713.66
2023-04-02T17:30:59.952Z,102728.09
2023-04-02T17:33:28.982Z,102736.22
2023-04-02T17:36:13.620Z,102746.25
2023-04-02T17:38:51.236Z,102758.25
2023-04-02T17:41:22.614Z,102758.25
2023-04-02T17:43:49.756Z,102764.28
2023-04-02T17:46:44.260Z,102778.97
2023-04-02T17:49:20.248Z,102779.03
2023-04-02T17:51:57.769Z,102777.94
2023-04-02T17:54:41.290Z,102773.75
2023-04-02T17:57:33.534Z,102789.56
2023-04-02T18:00:22.228Z,102802.34
2023-04-02T18:03:01.585Z,102802.34
2023-04-02T18:05:53.721Z,102801.13
2023-04-02T18:08:42.678Z,102815.66
2023-04-02T18:11:10.469Z,102827.88
2023-04-02T18:13:46.903Z,102831.03
2023-04-02T18:16:17.055Z,102839.34
2023-04-02T18:19:17.298Z,102839.81
2023-04-02T18:22:03.065Z,102839.06
2023-04-02T18:24:53.284Z,102848.34
2023-04-02T18:27:31.060Z,102851.28
2023-04-02T18:30:21.973Z,102855.00
2023-04-02T18:33:11.194Z,102850.94
2023-04-02T18:36:06.561Z,102856.34
2023-04-02T18:38:39.465Z,102862.31
2023-04-02T18:41:38.268Z,102870.13
2023-04-02T18:44:37.057Z,102865.25
2023-04-02T18:47:20.064Z,102876.13
2023-04-02T18:50:16.026Z,102879.63
2023-04-02T18:52:44.189Z,102889.94
2023-04-02T18:55:32.146Z,102886.66
2023-04-02T18:58:06.376Z,102900.66
2023-04-02T19:00:38.710Z,102895.31
2023-04-02T19:03:21.288Z,102900.00
2023-04-02T19:06:16.107Z,102908.22
2023-04-02T19:08:53.736Z,102917.09
2023-04-02T19:11:30.014Z,102924.25
2023-04-02T19:14:16.694Z,102918.69
2023-04-02T19:17:24.687Z,102923.63
2023-04-02T19:20:12.437Z,102933.06
2023-04-02T19:22:53.249Z,102932.81
2023-04-02T19:25:51.016Z,102935.69
2023-04-02T19:28:24.035Z,102939.22
2023-04-02T19:31:29.896Z,102949.69
2023-04-02T19:34:09.390Z,102942.84
2023-04-02T19:36:56.181Z,102948.22
2023-04-02T19:39:29.497Z,102949.63
2023-04-02T19:42:21.530Z,102952.28
2023-04-02T19:44:51.378Z,102948.56
2023-04-02T19:47:19.965Z,102958.78
2023-04-02T19:49:47.415Z,102956.25
2023-04-02T19:52:14.628Z,102967.75
2023-04-02T19:54:42.094Z,102955.00
2023-04-02T19:57:14.587Z,102962.56
2023-04-02T19:59:41.854Z,102968.78
2023-04-02T20:02:11.230Z,102962.13
2023-04-02T20:04:38.676Z,102958.44
2023-04-02T20:07:06.082Z,102962.91
2023-04-02T20:09:33.265Z,102972.75
2023-04-02T20:12:00.817Z,102976.25
2023-04-02T20:14:27.905Z,102978.50
2023-04-02T20:16:55.376Z,102974.56
2023-04-02T20:19:23.089Z,102974.13
2023-04-02T20:21:50.710Z,102982.91
2023-04-02T20:24:18.299Z,102970.72
2023-04-02T20:26:45.685Z,102991.22
2023-04-02T20:29:13.353Z,102988.53
2023-04-02T20:31:40.557Z,102988.53
2023-04-02T20:34:09.546Z,102996.16
2023-04-02T20:36:36.852Z,103003.16
2023-04-02T20:39:07.240Z,103007.78
2023-04-02T20:41:35.924Z,103002.13
2023-04-02T20:44:03.344Z,103016.28
2023-04-02T20:46:30.789Z,103021.03
2023-04-02T20:48:58.150Z,103022.06
2023-04-02T20:51:25.274Z,103022.13
2023-04-02T20:53:52.362Z,103031.59
2023-04-02T20:56:20.969Z,103029.69
2023-04-02T20:58:48.285Z,103034.09
2023-04-02T21:01:24.612Z,103043.31
2023-04-02T21:04:03.566Z,103051.69
2023-04-02T21:06:34.273Z,103052.28
2023-04-02T21:09:05.792Z,103055.81
2023-04-02T21:11:36.013Z,103052.72
2023-04-02T21:14:04.630Z,103059.09
2023-04-02T21:16:32.429Z,103060.72
2023-04-02T21:19:05.266Z,103064.00
2023-04-02T21:21:32.775Z,103061.47
2023-04-02T21:24:02.180Z,103057.16
2023-04-02T21:26:33.262Z,103063.06
2023-04-02T21:29:02.093Z,103070.59
2023-04-02T21:31:34.065Z,103067.94
2023-04-02T21:34:01.619Z,103065.28
2023-04-02T21:36:37.689Z,103051.41
2023-04-02T21:39:07.533Z,103061.34
2023-04-02T21:41:37.458Z,103068.44
2023-04-02T21:44:07.475Z,103080.75
2023-04-02T21:46:38.723Z,103084.91
2023-04-02T21:49:08.140Z,103079.75
2023-04-02T21:51:37.055Z,103076.56
2023-04-02T21:54:05.027Z,103075.34
2023-04-02T21:56:35.474Z,103081.06
2023-04-02T21:59:04.776Z,103086.63
2023-04-02T22:01:35.414Z,103084.81
2023-04-02T22:04:04.496Z,103078.19
2023-04-02T22:06:35.881Z,103085.34
2023-04-02T22:09:07.419Z,103089.88
2023-04-02T22:11:37.591Z,103083.59
2023-04-02T22:14:06.323Z,103089.69
2023-04-02T22:16:36.538Z,103096.19
2023-04-02T22:19:06.761Z,103085.19
2023-04-02T22:21:34.552Z,103097.94
2023-04-02T22:24:06.973Z,103098.41
2023-04-02T22:26:35.242Z,103110.81
2023-04-02T22:29:03.047Z,103098.88
2023-04-02T22:31:31.798Z,103092.34
2023-04-02T22:33:59.998Z,103104.34
2023-04-02T22:36:28.323Z,103105.91
2023-04-02T22:38:56.658Z,103117.81
2023-04-02T22:41:27.603Z,103111.22
2023-04-02T22:43:59.098Z,103121.69
2023-04-02T22:46:27.565Z,103122.69
2023-04-02T22:48:56.185Z,103121.72
2023-04-02T22:51:25.231Z,103125.94
2023-04-02T22:53:54.344Z,103121.13
2023-04-02T22:56:26.245Z,103113.09
2023-04-02T22:58:53.572Z,103130.72
2023-04-02T23:01:27.279Z,103121.13
2023-04-02T23:03:55.487Z,103130.94
2023-04-02T23:06:24.004Z,103125.13
2023-04-02T23:08:51.909Z,103131.66
2023-04-02T23:11:27.920Z,103126.91
2023-04-02T23:13:58.888Z,103135.69
2023-04-02T23:16:28.633Z,103141.53
2023-04-02T23:18:56.777Z,103142.53
2023-04-02T23:21:25.925Z,103139.91
2023-04-02T23:23:53.399Z,103144.25
2023-04-02T23:26:29.815Z,103141.09
2023-04-02T23:28:58.909Z,103145.91
2023-04-02T23:31:27.055Z,103151.94
2023-04-02T23:33:54.442Z,103148.63
2023-04-02T23:36:27.612Z,103150.41
2023-04-02T23:38:57.472Z,103150.13
2023-04-02T23:41:27.139Z,103147.31
2023-04-02T23:43:56.229Z,103147.03
2023-04-02T23:46:24.068Z,103151.34
2023-04-02T23:48:52.540Z,103155.16
2023-04-02T23:51:20.130Z,103158.97
2023-04-02T23:53:48.745Z,103152.53
2023-04-02T23:56:16.276Z,103149.06
2023-04-02T23:58:43.654Z,103157.38
